Camp Pendleton MCAS (Munn Field) Airport
KNFG : rendu visible

Aérodrome :











RETROUVEZ-NOUS SUR...

 
LOGIN :

S'inscrire | Disclaimer

   EN    FR    IT 

 









Légende :    VFR   VFR Marginal   IFR   IFR Intensif   IFR Très Intensif
Visi : 
Plafond : 
>= 8 km
>= 3000ft
5 à 8 km
1000 à 3000 ft
1500m à 5 km
500 à 1000 ft
800 à 1500m
200 à 500 ft
< 800m
< 200 ft
Symboles :   Orages  Brouillard  Fortes neiges  Fortes précipitations  Vent > 20 kt






- Altitude de l'aérodrome : 78 ft


KNFG - Camp Pendleton MCAS (Munn Field)

DERNIER METAR :
  • 180855Z AUTO 00000KT 10SM CLR 04/02 A3021 RMK AO2 SLP229 T00440022 58001 $

METARs EXPIRÉS :
  • 180755Z AUTO 00000KT 10SM CLR 07/05 A3021 RMK AO2 SLP229 T00720050 401720056 $
  • 180655Z AUTO 00000KT 10SM CLR 07/05 A3021 RMK AO2 SLP230 T00670050 $

TAF TAF KNFG
Valide du 18 à 03h jusqu'au 19 à 03h UTC


1803/1903 VRB05KT 9999 FEW020 FEW250 QNH3013INS AUTOMATED SENSOR METWATCH 1803 TIL 2114 T05/1813Z T20/1821Z



MET'MAP, la Météo Aéronautique d'un coup d'oeil ! - Copyright ORBIFLY Décembre 2007 - Disclaimer

ORBIFLY MET'MAP TEAM :

Programmation & Développement : Alexandra Zaïnal
Sur une idée originale de : Baudouin d'Aumeries
Assistance à la programmation : Marc-Olivier Méhu
Soutien technique & logistique : Manuel Goepfert

Contact : metmap@orbifly.com




SOURCES & CREDITS :

   NOAA       Earth
Advisory